sensor_id;sensor_type;location;lat;lon;timestamp;temperature;humidity
15625;DHT22;7912;51.376;6.126;2024-02-14T00:00:11;11.80;99.90
15625;DHT22;7912;51.376;6.126;2024-02-14T00:02:46;11.80;99.90
15625;DHT22;7912;51.376;6.126;2024-02-14T00:05:17;11.80;99.90
15625;DHT22;7912;51.376;6.126;2024-02-14T00:07:44;11.80;99.90
15625;DHT22;7912;51.376;6.126;2024-02-14T00:10:12;11.80;99.90
15625;DHT22;7912;51.376;6.126;2024-02-14T00:12:39;11.80;99.90
15625;DHT22;7912;51.376;6.126;2024-02-14T00:15:07;11.80;99.90
15625;DHT22;7912;51.376;6.126;2024-02-14T00:17:36;11.80;99.90
15625;DHT22;7912;51.376;6.126;2024-02-14T00:20:04;11.80;99.90
15625;DHT22;7912;51.376;6.126;2024-02-14T00:22:32;11.80;99.90
15625;DHT22;7912;51.376;6.126;2024-02-14T00:24:59;11.80;99.90
15625;DHT22;7912;51.376;6.126;2024-02-14T00:27:27;11.70;99.90
15625;DHT22;7912;51.376;6.126;2024-02-14T00:29:55;11.70;99.90
15625;DHT22;7912;51.376;6.126;2024-02-14T00:32:23;11.70;99.90
15625;DHT22;7912;51.376;6.126;2024-02-14T00:34:50;11.70;99.90
15625;DHT22;7912;51.376;6.126;2024-02-14T00:37:22;11.70;99.90
15625;DHT22;7912;51.376;6.126;2024-02-14T00:39:49;11.70;99.90
15625;DHT22;7912;51.376;6.126;2024-02-14T00:42:18;11.60;99.90
15625;DHT22;7912;51.376;6.126;2024-02-14T00:44:46;11.60;99.90
15625;DHT22;7912;51.376;6.126;2024-02-14T00:47:13;11.60;99.90
15625;DHT22;7912;51.376;6.126;2024-02-14T00:49:40;11.60;99.90
15625;DHT22;7912;51.376;6.126;2024-02-14T00:52:08;11.60;99.90
15625;DHT22;7912;51.376;6.126;2024-02-14T00:54:36;11.70;99.90
15625;DHT22;7912;51.376;6.126;2024-02-14T00:57:03;11.70;99.90
15625;DHT22;7912;51.376;6.126;2024-02-14T00:59:30;11.70;99.90
15625;DHT22;7912;51.376;6.126;2024-02-14T01:01:58;11.70;99.90
15625;DHT22;7912;51.376;6.126;2024-02-14T01:04:26;11.70;99.90
15625;DHT22;7912;51.376;6.126;2024-02-14T01:06:53;11.70;99.90
15625;DHT22;7912;51.376;6.126;2024-02-14T01:09:20;11.70;99.90
15625;DHT22;7912;51.376;6.126;2024-02-14T01:11:48;11.70;99.90
15625;DHT22;7912;51.376;6.126;2024-02-14T01:14:16;11.80;99.90
15625;DHT22;7912;51.376;6.126;2024-02-14T01:16:44;11.80;99.90
15625;DHT22;7912;51.376;6.126;2024-02-14T01:19:13;11.80;99.90
15625;DHT22;7912;51.376;6.126;2024-02-14T01:21:41;11.80;99.90
15625;DHT22;7912;51.376;6.126;2024-02-14T01:24:08;11.80;99.90
15625;DHT22;7912;51.376;6.126;2024-02-14T01:26:36;11.90;99.90
15625;DHT22;7912;51.376;6.126;2024-02-14T01:29:04;11.90;99.90
15625;DHT22;7912;51.376;6.126;2024-02-14T01:31:35;11.90;99.90
15625;DHT22;7912;51.376;6.126;2024-02-14T01:34:03;11.90;99.90
15625;DHT22;7912;51.376;6.126;2024-02-14T01:36:30;12.00;99.90
15625;DHT22;7912;51.376;6.126;2024-02-14T01:38:58;12.00;99.90
15625;DHT22;7912;51.376;6.126;2024-02-14T01:41:33;12.00;99.90
15625;DHT22;7912;51.376;6.126;2024-02-14T01:44:00;12.10;99.90
15625;DHT22;7912;51.376;6.126;2024-02-14T01:46:28;12.00;99.90
15625;DHT22;7912;51.376;6.126;2024-02-14T01:48:55;12.10;99.90
15625;DHT22;7912;51.376;6.126;2024-02-14T01:51:24;12.10;99.90
15625;DHT22;7912;51.376;6.126;2024-02-14T01:53:52;12.10;99.90
15625;DHT22;7912;51.376;6.126;2024-02-14T01:56:21;12.10;99.90
15625;DHT22;7912;51.376;6.126;2024-02-14T01:58:49;12.20;99.90
15625;DHT22;7912;51.376;6.126;2024-02-14T02:01:18;12.20;99.90
15625;DHT22;7912;51.376;6.126;2024-02-14T02:03:45;12.30;99.90
15625;DHT22;7912;51.376;6.126;2024-02-14T02:06:13;12.30;99.90
15625;DHT22;7912;51.376;6.126;2024-02-14T02:08:43;12.30;99.90
15625;DHT22;7912;51.376;6.126;2024-02-14T02:11:11;12.30;99.90
15625;DHT22;7912;51.376;6.126;2024-02-14T02:13:38;12.30;99.90
15625;DHT22;7912;51.376;6.126;2024-02-14T02:16:06;12.40;99.90
15625;DHT22;7912;51.376;6.126;2024-02-14T02:18:35;12.40;99.90
15625;DHT22;7912;51.376;6.126;2024-02-14T02:21:02;12.40;99.90
15625;DHT22;7912;51.376;6.126;2024-02-14T02:23:34;12.40;99.90
15625;DHT22;7912;51.376;6.126;2024-02-14T02:26:02;12.50;99.90
15625;DHT22;7912;51.376;6.126;2024-02-14T02:28:30;12.50;99.90
15625;DHT22;7912;51.376;6.126;2024-02-14T02:30:59;12.50;99.90
15625;DHT22;7912;51.376;6.126;2024-02-14T02:33:26;12.50;99.90
15625;DHT22;7912;51.376;6.126;2024-02-14T02:35:54;12.50;99.90
15625;DHT22;7912;51.376;6.126;2024-02-14T02:38:21;12.60;99.90
15625;DHT22;7912;51.376;6.126;2024-02-14T02:40:49;12.60;99.90
15625;DHT22;7912;51.376;6.126;2024-02-14T02:43:17;12.60;99.90
15625;DHT22;7912;51.376;6.126;2024-02-14T02:45:44;12.60;99.90
15625;DHT22;7912;51.376;6.126;2024-02-14T02:48:12;12.70;99.90
15625;DHT22;7912;51.376;6.126;2024-02-14T02:50:42;12.60;99.90
15625;DHT22;7912;51.376;6.126;2024-02-14T02:53:11;12.60;99.90
15625;DHT22;7912;51.376;6.126;2024-02-14T02:55:38;12.70;99.90
15625;DHT22;7912;51.376;6.126;2024-02-14T02:58:05;12.70;99.90
15625;DHT22;7912;51.376;6.126;2024-02-14T03:00:34;12.70;99.90
15625;DHT22;7912;51.376;6.126;2024-02-14T03:03:01;12.70;99.90
15625;DHT22;7912;51.376;6.126;2024-02-14T03:05:31;12.70;99.90
15625;DHT22;7912;51.376;6.126;2024-02-14T03:08:00;12.70;99.90
15625;DHT22;7912;51.376;6.126;2024-02-14T03:10:27;12.80;99.90
15625;DHT22;7912;51.376;6.126;2024-02-14T03:12:56;12.80;99.90
15625;DHT22;7912;51.376;6.126;2024-02-14T03:15:23;12.80;99.90
15625;DHT22;7912;51.376;6.126;2024-02-14T03:17:52;12.70;99.90
15625;DHT22;7912;51.376;6.126;2024-02-14T03:20:23;12.80;99.90
15625;DHT22;7912;51.376;6.126;2024-02-14T03:22:50;12.80;99.90
15625;DHT22;7912;51.376;6.126;2024-02-14T03:25:19;12.80;99.90
15625;DHT22;7912;51.376;6.126;2024-02-14T03:27:47;12.80;99.90
15625;DHT22;7912;51.376;6.126;2024-02-14T03:30:19;12.80;99.90
15625;DHT22;7912;51.376;6.126;2024-02-14T03:32:47;12.80;99.90
15625;DHT22;7912;51.376;6.126;2024-02-14T03:35:15;12.80;99.90
15625;DHT22;7912;51.376;6.126;2024-02-14T03:37:46;12.80;99.90
15625;DHT22;7912;51.376;6.126;2024-02-14T03:40:19;12.80;99.90
15625;DHT22;7912;51.376;6.126;2024-02-14T03:42:58;12.80;99.90
15625;DHT22;7912;51.376;6.126;2024-02-14T03:45:27;12.90;99.90
15625;DHT22;7912;51.376;6.126;2024-02-14T03:47:57;12.90;99.90
15625;DHT22;7912;51.376;6.126;2024-02-14T03:50:25;12.90;99.90
15625;DHT22;7912;51.376;6.126;2024-02-14T03:52:52;12.90;99.90
15625;DHT22;7912;51.376;6.126;2024-02-14T03:55:19;12.80;99.90
15625;DHT22;7912;51.376;6.126;2024-02-14T03:57:52;12.90;99.90
15625;DHT22;7912;51.376;6.126;2024-02-14T04:00:19;12.90;99.90
15625;DHT22;7912;51.376;6.126;2024-02-14T04:02:49;12.90;99.90
15625;DHT22;7912;51.376;6.126;2024-02-14T04:05:19;12.90;99.90
15625;DHT22;7912;51.376;6.126;2024-02-14T04:07:52;12.90;99.90
15625;DHT22;7912;51.376;6.126;2024-02-14T04:10:21;12.90;99.90
15625;DHT22;7912;51.376;6.126;2024-02-14T04:12:49;12.90;99.90
15625;DHT22;7912;51.376;6.126;2024-02-14T04:15:17;12.90;99.90
15625;DHT22;7912;51.376;6.126;2024-02-14T04:17:44;12.90;99.90
15625;DHT22;7912;51.376;6.126;2024-02-14T04:20:11;12.90;99.90
15625;DHT22;7912;51.376;6.126;2024-02-14T04:22:39;12.90;99.90
15625;DHT22;7912;51.376;6.126;2024-02-14T04:25:08;12.90;99.90
15625;DHT22;7912;51.376;6.126;2024-02-14T04:27:35;12.90;99.90
15625;DHT22;7912;51.376;6.126;2024-02-14T04:30:02;12.90;99.90
15625;DHT22;7912;51.376;6.126;2024-02-14T04:32:30;12.90;99.90
15625;DHT22;7912;51.376;6.126;2024-02-14T04:34:58;13.00;99.90
15625;DHT22;7912;51.376;6.126;2024-02-14T04:37:26;13.00;99.90
15625;DHT22;7912;51.376;6.126;2024-02-14T04:39:53;12.90;99.90
15625;DHT22;7912;51.376;6.126;2024-02-14T04:42:21;13.00;99.90
15625;DHT22;7912;51.376;6.126;2024-02-14T04:44:48;13.00;99.90
15625;DHT22;7912;51.376;6.126;2024-02-14T04:47:15;13.00;99.90
15625;DHT22;7912;51.376;6.126;2024-02-14T04:49:42;13.00;99.90
15625;DHT22;7912;51.376;6.126;2024-02-14T04:52:10;13.00;99.90
15625;DHT22;7912;51.376;6.126;2024-02-14T04:54:37;13.00;99.90
15625;DHT22;7912;51.376;6.126;2024-02-14T04:57:04;13.00;99.90
15625;DHT22;7912;51.376;6.126;2024-02-14T04:59:32;13.00;99.90
15625;DHT22;7912;51.376;6.126;2024-02-14T05:01:59;13.00;99.90
15625;DHT22;7912;51.376;6.126;2024-02-14T05:04:27;13.00;99.90
15625;DHT22;7912;51.376;6.126;2024-02-14T05:06:54;13.00;99.90
15625;DHT22;7912;51.376;6.126;2024-02-14T05:09:25;13.00;99.90
15625;DHT22;7912;51.376;6.126;2024-02-14T05:11:52;13.00;99.90
15625;DHT22;7912;51.376;6.126;2024-02-14T05:14:20;13.00;99.90
15625;DHT22;7912;51.376;6.126;2024-02-14T05:16:47;13.00;99.90
15625;DHT22;7912;51.376;6.126;2024-02-14T05:19:14;13.10;99.90
15625;DHT22;7912;51.376;6.126;2024-02-14T05:21:42;13.10;99.90
15625;DHT22;7912;51.376;6.126;2024-02-14T05:24:09;13.10;99.90
15625;DHT22;7912;51.376;6.126;2024-02-14T05:26:37;13.10;99.90
15625;DHT22;7912;51.376;6.126;2024-02-14T05:29:23;13.10;99.90
15625;DHT22;7912;51.376;6.126;2024-02-14T05:31:50;13.10;99.90
15625;DHT22;7912;51.376;6.126;2024-02-14T05:34:22;13.10;99.90
15625;DHT22;7912;51.376;6.126;2024-02-14T05:36:49;13.20;99.90
15625;DHT22;7912;51.376;6.126;2024-02-14T05:39:19;13.20;99.90
15625;DHT22;7912;51.376;6.126;2024-02-14T05:41:46;13.20;99.90
15625;DHT22;7912;51.376;6.126;2024-02-14T05:44:14;13.20;99.90
15625;DHT22;7912;51.376;6.126;2024-02-14T05:46:41;13.20;99.90
15625;DHT22;7912;51.376;6.126;2024-02-14T05:49:08;13.20;99.90
15625;DHT22;7912;51.376;6.126;2024-02-14T05:51:36;13.20;99.90
15625;DHT22;7912;51.376;6.126;2024-02-14T05:54:03;13.10;99.90
15625;DHT22;7912;51.376;6.126;2024-02-14T05:56:31;13.10;99.90
15625;DHT22;7912;51.376;6.126;2024-02-14T05:58:58;13.10;99.90
15625;DHT22;7912;51.376;6.126;2024-02-14T06:01:25;13.10;99.90
15625;DHT22;7912;51.376;6.126;2024-02-14T06:03:53;13.10;99.90
15625;DHT22;7912;51.376;6.126;2024-02-14T06:06:20;13.10;99.90
15625;DHT22;7912;51.376;6.126;2024-02-14T06:08:48;13.00;99.90
15625;DHT22;7912;51.376;6.126;2024-02-14T06:11:15;13.00;99.90
15625;DHT22;7912;51.376;6.126;2024-02-14T06:13:43;13.00;99.90
15625;DHT22;7912;51.376;6.126;2024-02-14T06:16:11;13.00;99.90
15625;DHT22;7912;51.376;6.126;2024-02-14T06:18:38;13.00;99.90
15625;DHT22;7912;51.376;6.126;2024-02-14T06:21:09;13.00;99.90
15625;DHT22;7912;51.376;6.126;2024-02-14T06:23:37;13.00;99.90
15625;DHT22;7912;51.376;6.126;2024-02-14T06:26:05;13.00;99.90
15625;DHT22;7912;51.376;6.126;2024-02-14T06:28:34;13.00;99.90
15625;DHT22;7912;51.376;6.126;2024-02-14T06:31:01;13.00;99.90
15625;DHT22;7912;51.376;6.126;2024-02-14T06:33:28;13.00;99.90
15625;DHT22;7912;51.376;6.126;2024-02-14T06:35:56;13.00;99.90
15625;DHT22;7912;51.376;6.126;2024-02-14T06:38:24;13.00;99.90
15625;DHT22;7912;51.376;6.126;2024-02-14T06:40:51;13.00;99.90
15625;DHT22;7912;51.376;6.126;2024-02-14T06:43:19;13.00;99.90
15625;DHT22;7912;51.376;6.126;2024-02-14T06:45:46;13.00;99.90
15625;DHT22;7912;51.376;6.126;2024-02-14T06:48:14;13.00;99.90
15625;DHT22;7912;51.376;6.126;2024-02-14T06:50:43;13.00;99.90
15625;DHT22;7912;51.376;6.126;2024-02-14T06:53:11;13.00;99.90
15625;DHT22;7912;51.376;6.126;2024-02-14T06:55:59;13.00;99.90
15625;DHT22;7912;51.376;6.126;2024-02-14T06:58:29;13.00;99.90
15625;DHT22;7912;51.376;6.126;2024-02-14T07:00:57;13.10;99.90
15625;DHT22;7912;51.376;6.126;2024-02-14T07:03:27;13.10;99.90
15625;DHT22;7912;51.376;6.126;2024-02-14T07:05:54;13.10;99.90
15625;DHT22;7912;51.376;6.126;2024-02-14T07:08:22;13.10;99.90
15625;DHT22;7912;51.376;6.126;2024-02-14T07:10:51;13.10;99.90
15625;DHT22;7912;51.376;6.126;2024-02-14T07:13:18;13.10;99.90
15625;DHT22;7912;51.376;6.126;2024-02-14T07:15:45;13.10;99.90
15625;DHT22;7912;51.376;6.126;2024-02-14T07:18:12;13.10;99.90
15625;DHT22;7912;51.376;6.126;2024-02-14T07:20:40;13.10;99.90
15625;DHT22;7912;51.376;6.126;2024-02-14T07:23:10;13.20;99.90
15625;DHT22;7912;51.376;6.126;2024-02-14T07:25:43;13.20;99.90
15625;DHT22;7912;51.376;6.126;2024-02-14T07:28:25;13.20;99.90
15625;DHT22;7912;51.376;6.126;2024-02-14T07:30:52;13.20;99.90
15625;DHT22;7912;51.376;6.126;2024-02-14T07:33:19;13.30;99.90
15625;DHT22;7912;51.376;6.126;2024-02-14T07:35:47;13.30;99.90
15625;DHT22;7912;51.376;6.126;2024-02-14T07:38:16;13.30;99.90
15625;DHT22;7912;51.376;6.126;2024-02-14T07:40:44;13.30;99.90
15625;DHT22;7912;51.376;6.126;2024-02-14T07:43:11;13.30;99.90
15625;DHT22;7912;51.376;6.126;2024-02-14T07:45:39;13.30;99.90
15625;DHT22;7912;51.376;6.126;2024-02-14T07:48:06;13.30;99.90
15625;DHT22;7912;51.376;6.126;2024-02-14T07:50:34;13.30;99.90
15625;DHT22;7912;51.376;6.126;2024-02-14T07:53:02;13.30;99.90
15625;DHT22;7912;51.376;6.126;2024-02-14T07:55:29;13.40;99.90
15625;DHT22;7912;51.376;6.126;2024-02-14T07:57:56;13.40;99.90
15625;DHT22;7912;51.376;6.126;2024-02-14T08:00:26;13.40;99.90
15625;DHT22;7912;51.376;6.126;2024-02-14T08:02:54;13.40;99.90
15625;DHT22;7912;51.376;6.126;2024-02-14T08:05:21;13.40;99.90
15625;DHT22;7912;51.376;6.126;2024-02-14T08:07:49;13.40;99.90
15625;DHT22;7912;51.376;6.126;2024-02-14T08:10:16;13.40;99.90
15625;DHT22;7912;51.376;6.126;2024-02-14T08:12:43;13.50;99.90
15625;DHT22;7912;51.376;6.126;2024-02-14T08:15:10;13.50;99.90
15625;DHT22;7912;51.376;6.126;2024-02-14T08:17:38;13.50;99.90
15625;DHT22;7912;51.376;6.126;2024-02-14T08:20:14;13.50;99.90
15625;DHT22;7912;51.376;6.126;2024-02-14T08:22:52;13.50;99.90
15625;DHT22;7912;51.376;6.126;2024-02-14T08:25:20;13.50;99.90
15625;DHT22;7912;51.376;6.126;2024-02-14T08:27:47;13.50;99.90
15625;DHT22;7912;51.376;6.126;2024-02-14T08:30:14;13.60;99.90
15625;DHT22;7912;51.376;6.126;2024-02-14T08:32:42;13.60;99.90
15625;DHT22;7912;51.376;6.126;2024-02-14T08:35:09;13.60;99.90
15625;DHT22;7912;51.376;6.126;2024-02-14T08:37:37;13.60;99.90
15625;DHT22;7912;51.376;6.126;2024-02-14T08:40:05;13.60;99.90
15625;DHT22;7912;51.376;6.126;2024-02-14T08:42:33;13.60;99.90
15625;DHT22;7912;51.376;6.126;2024-02-14T08:45:01;13.60;99.90
15625;DHT22;7912;51.376;6.126;2024-02-14T08:47:29;13.60;99.90
15625;DHT22;7912;51.376;6.126;2024-02-14T08:49:56;13.60;99.90
15625;DHT22;7912;51.376;6.126;2024-02-14T08:52:23;13.60;99.90
15625;DHT22;7912;51.376;6.126;2024-02-14T08:54:55;13.60;99.90
15625;DHT22;7912;51.376;6.126;2024-02-14T08:57:22;13.60;99.90
15625;DHT22;7912;51.376;6.126;2024-02-14T09:00:09;13.60;99.90
15625;DHT22;7912;51.376;6.126;2024-02-14T09:02:38;13.60;99.90
15625;DHT22;7912;51.376;6.126;2024-02-14T09:05:06;13.70;99.90
15625;DHT22;7912;51.376;6.126;2024-02-14T09:07:40;13.70;99.90
15625;DHT22;7912;51.376;6.126;2024-02-14T09:10:09;13.70;99.90
15625;DHT22;7912;51.376;6.126;2024-02-14T09:12:37;13.80;99.90
15625;DHT22;7912;51.376;6.126;2024-02-14T09:15:05;13.80;99.90
15625;DHT22;7912;51.376;6.126;2024-02-14T09:17:33;13.80;99.90
15625;DHT22;7912;51.376;6.126;2024-02-14T09:20:01;13.90;99.90
15625;DHT22;7912;51.376;6.126;2024-02-14T09:22:29;13.90;99.90
15625;DHT22;7912;51.376;6.126;2024-02-14T09:24:57;14.00;99.90
15625;DHT22;7912;51.376;6.126;2024-02-14T09:27:24;14.00;99.90
15625;DHT22;7912;51.376;6.126;2024-02-14T09:29:54;14.10;99.90
15625;DHT22;7912;51.376;6.126;2024-02-14T09:32:21;14.10;99.90
15625;DHT22;7912;51.376;6.126;2024-02-14T09:34:49;14.20;99.90
15625;DHT22;7912;51.376;6.126;2024-02-14T09:37:16;14.20;99.90
15625;DHT22;7912;51.376;6.126;2024-02-14T09:39:44;14.30;99.90
15625;DHT22;7912;51.376;6.126;2024-02-14T09:42:14;14.30;99.90
15625;DHT22;7912;51.376;6.126;2024-02-14T09:44:45;14.40;99.90
15625;DHT22;7912;51.376;6.126;2024-02-14T09:47:13;14.40;99.90
15625;DHT22;7912;51.376;6.126;2024-02-14T09:49:45;14.40;99.90
15625;DHT22;7912;51.376;6.126;2024-02-14T09:52:14;14.50;99.90
15625;DHT22;7912;51.376;6.126;2024-02-14T09:54:43;14.50;99.90
15625;DHT22;7912;51.376;6.126;2024-02-14T09:57:11;14.50;99.90
15625;DHT22;7912;51.376;6.126;2024-02-14T09:59:40;14.50;99.90
15625;DHT22;7912;51.376;6.126;2024-02-14T10:02:07;14.60;99.90
15625;DHT22;7912;51.376;6.126;2024-02-14T10:04:37;14.50;99.90
15625;DHT22;7912;51.376;6.126;2024-02-14T10:07:05;14.50;99.90
15625;DHT22;7912;51.376;6.126;2024-02-14T10:09:40;14.50;99.90
15625;DHT22;7912;51.376;6.126;2024-02-14T10:12:09;14.60;99.90
15625;DHT22;7912;51.376;6.126;2024-02-14T10:14:37;14.60;99.90
15625;DHT22;7912;51.376;6.126;2024-02-14T10:17:04;14.60;99.90
15625;DHT22;7912;51.376;6.126;2024-02-14T10:19:32;14.60;99.90
15625;DHT22;7912;51.376;6.126;2024-02-14T10:22:01;14.60;99.90
15625;DHT22;7912;51.376;6.126;2024-02-14T10:24:32;14.70;99.90
15625;DHT22;7912;51.376;6.126;2024-02-14T10:26:59;14.70;99.90
15625;DHT22;7912;51.376;6.126;2024-02-14T10:29:27;14.80;99.90
15625;DHT22;7912;51.376;6.126;2024-02-14T10:31:54;14.80;99.90
15625;DHT22;7912;51.376;6.126;2024-02-14T10:34:26;14.80;99.90
15625;DHT22;7912;51.376;6.126;2024-02-14T10:36:57;14.80;99.90
15625;DHT22;7912;51.376;6.126;2024-02-14T10:39:26;14.90;99.90
15625;DHT22;7912;51.376;6.126;2024-02-14T10:41:57;14.80;99.90
15625;DHT22;7912;51.376;6.126;2024-02-14T10:44:24;14.90;99.90
15625;DHT22;7912;51.376;6.126;2024-02-14T10:46:53;14.90;99.90
15625;DHT22;7912;51.376;6.126;2024-02-14T10:49:26;14.90;99.90
15625;DHT22;7912;51.376;6.126;2024-02-14T10:51:58;15.00;99.90
15625;DHT22;7912;51.376;6.126;2024-02-14T10:54:29;15.00;99.90
15625;DHT22;7912;51.376;6.126;2024-02-14T10:56:59;15.00;99.90
15625;DHT22;7912;51.376;6.126;2024-02-14T10:59:32;15.00;99.90
15625;DHT22;7912;51.376;6.126;2024-02-14T11:02:00;15.00;99.90
15625;DHT22;7912;51.376;6.126;2024-02-14T11:04:28;15.00;99.90
15625;DHT22;7912;51.376;6.126;2024-02-14T11:06:58;15.10;99.90
15625;DHT22;7912;51.376;6.126;2024-02-14T11:09:33;15.10;99.90
15625;DHT22;7912;51.376;6.126;2024-02-14T11:12:06;15.10;99.90
15625;DHT22;7912;51.376;6.126;2024-02-14T11:14:35;15.10;99.90
15625;DHT22;7912;51.376;6.126;2024-02-14T11:17:09;15.10;99.90
15625;DHT22;7912;51.376;6.126;2024-02-14T11:19:39;15.20;99.90
15625;DHT22;7912;51.376;6.126;2024-02-14T11:22:26;15.20;99.90
15625;DHT22;7912;51.376;6.126;2024-02-14T11:25:06;15.20;99.90
15625;DHT22;7912;51.376;6.126;2024-02-14T11:27:34;15.30;99.90
15625;DHT22;7912;51.376;6.126;2024-02-14T11:30:02;15.30;99.90
15625;DHT22;7912;51.376;6.126;2024-02-14T11:32:33;15.30;99.90
15625;DHT22;7912;51.376;6.126;2024-02-14T11:35:00;15.30;99.90
15625;DHT22;7912;51.376;6.126;2024-02-14T11:37:28;15.30;99.90
15625;DHT22;7912;51.376;6.126;2024-02-14T11:39:58;15.30;99.90
15625;DHT22;7912;51.376;6.126;2024-02-14T11:42:25;15.30;99.90
15625;DHT22;7912;51.376;6.126;2024-02-14T11:45:12;15.30;99.90
15625;DHT22;7912;51.376;6.126;2024-02-14T11:47:39;15.30;99.90
15625;DHT22;7912;51.376;6.126;2024-02-14T11:50:07;15.30;99.90
15625;DHT22;7912;51.376;6.126;2024-02-14T11:52:36;15.20;99.90
15625;DHT22;7912;51.376;6.126;2024-02-14T11:55:04;15.20;99.90
15625;DHT22;7912;51.376;6.126;2024-02-14T11:57:32;15.20;99.90
15625;DHT22;7912;51.376;6.126;2024-02-14T12:00:03;15.20;99.90
15625;DHT22;7912;51.376;6.126;2024-02-14T12:02:32;15.20;99.90
15625;DHT22;7912;51.376;6.126;2024-02-14T12:04:59;15.20;99.90
15625;DHT22;7912;51.376;6.126;2024-02-14T12:07:27;15.10;99.90
15625;DHT22;7912;51.376;6.126;2024-02-14T12:09:55;15.10;99.90
15625;DHT22;7912;51.376;6.126;2024-02-14T12:12:22;15.10;99.90
15625;DHT22;7912;51.376;6.126;2024-02-14T12:14:53;15.10;99.90
15625;DHT22;7912;51.376;6.126;2024-02-14T12:17:20;15.00;99.90
15625;DHT22;7912;51.376;6.126;2024-02-14T12:19:49;15.00;99.90
15625;DHT22;7912;51.376;6.126;2024-02-14T12:22:17;15.00;99.90
15625;DHT22;7912;51.376;6.126;2024-02-14T12:24:46;15.00;99.90
15625;DHT22;7912;51.376;6.126;2024-02-14T12:27:17;15.00;99.90
15625;DHT22;7912;51.376;6.126;2024-02-14T12:29:46;15.00;99.90
15625;DHT22;7912;51.376;6.126;2024-02-14T12:32:16;15.00;99.90
15625;DHT22;7912;51.376;6.126;2024-02-14T12:34:44;15.00;99.90
15625;DHT22;7912;51.376;6.126;2024-02-14T12:37:12;15.10;99.90
15625;DHT22;7912;51.376;6.126;2024-02-14T12:39:40;15.10;99.90
15625;DHT22;7912;51.376;6.126;2024-02-14T12:42:26;15.10;99.90
15625;DHT22;7912;51.376;6.126;2024-02-14T12:44:54;15.20;99.90
15625;DHT22;7912;51.376;6.126;2024-02-14T12:47:23;15.30;99.90
15625;DHT22;7912;51.376;6.126;2024-02-14T12:49:50;15.30;99.90
15625;DHT22;7912;51.376;6.126;2024-02-14T12:52:18;15.30;99.90
15625;DHT22;7912;51.376;6.126;2024-02-14T12:54:45;15.40;99.90
15625;DHT22;7912;51.376;6.126;2024-02-14T12:57:15;15.50;99.90
15625;DHT22;7912;51.376;6.126;2024-02-14T12:59:43;15.60;99.90
15625;DHT22;7912;51.376;6.126;2024-02-14T13:02:10;15.60;99.90
15625;DHT22;7912;51.376;6.126;2024-02-14T13:04:56;15.60;99.90
15625;DHT22;7912;51.376;6.126;2024-02-14T13:07:23;15.70;99.90
15625;DHT22;7912;51.376;6.126;2024-02-14T13:09:51;15.70;99.90
15625;DHT22;7912;51.376;6.126;2024-02-14T13:12:18;15.80;99.90
15625;DHT22;7912;51.376;6.126;2024-02-14T13:14:45;15.80;99.90
15625;DHT22;7912;51.376;6.126;2024-02-14T13:17:13;15.80;99.90
15625;DHT22;7912;51.376;6.126;2024-02-14T13:19:41;15.80;99.90
15625;DHT22;7912;51.376;6.126;2024-02-14T13:22:09;15.80;99.90
15625;DHT22;7912;51.376;6.126;2024-02-14T13:24:37;15.80;99.90
15625;DHT22;7912;51.376;6.126;2024-02-14T13:27:05;15.70;99.90
15625;DHT22;7912;51.376;6.126;2024-02-14T13:29:32;15.70;99.90
15625;DHT22;7912;51.376;6.126;2024-02-14T13:31:59;15.70;99.90
15625;DHT22;7912;51.376;6.126;2024-02-14T13:34:29;15.60;99.90
15625;DHT22;7912;51.376;6.126;2024-02-14T13:36:57;15.60;99.90
15625;DHT22;7912;51.376;6.126;2024-02-14T13:39:25;15.60;99.90
15625;DHT22;7912;51.376;6.126;2024-02-14T13:41:52;15.50;99.90
15625;DHT22;7912;51.376;6.126;2024-02-14T13:44:21;15.50;99.90
15625;DHT22;7912;51.376;6.126;2024-02-14T13:46:48;15.50;99.90
15625;DHT22;7912;51.376;6.126;2024-02-14T13:49:17;15.50;99.90
15625;DHT22;7912;51.376;6.126;2024-02-14T13:51:50;15.50;99.90
15625;DHT22;7912;51.376;6.126;2024-02-14T13:54:21;15.40;99.90
15625;DHT22;7912;51.376;6.126;2024-02-14T13:56:50;15.40;99.90
15625;DHT22;7912;51.376;6.126;2024-02-14T13:59:19;15.40;99.90
15625;DHT22;7912;51.376;6.126;2024-02-14T14:01:46;15.40;99.90
15625;DHT22;7912;51.376;6.126;2024-02-14T14:04:14;15.40;99.90
15625;DHT22;7912;51.376;6.126;2024-02-14T14:06:45;15.30;99.90
15625;DHT22;7912;51.376;6.126;2024-02-14T14:09:14;15.30;99.90
15625;DHT22;7912;51.376;6.126;2024-02-14T14:11:44;15.30;99.90
15625;DHT22;7912;51.376;6.126;2024-02-14T14:14:13;15.30;99.90
15625;DHT22;7912;51.376;6.126;2024-02-14T14:16:47;15.30;99.90
15625;DHT22;7912;51.376;6.126;2024-02-14T14:19:14;15.30;99.90
15625;DHT22;7912;51.376;6.126;2024-02-14T14:21:41;15.30;99.90
15625;DHT22;7912;51.376;6.126;2024-02-14T14:24:09;15.20;99.90
15625;DHT22;7912;51.376;6.126;2024-02-14T14:26:36;15.20;99.90
15625;DHT22;7912;51.376;6.126;2024-02-14T14:29:04;15.20;99.90
15625;DHT22;7912;51.376;6.126;2024-02-14T14:31:31;15.20;99.90
15625;DHT22;7912;51.376;6.126;2024-02-14T14:34:00;15.20;99.90
15625;DHT22;7912;51.376;6.126;2024-02-14T14:36:28;15.20;99.90
15625;DHT22;7912;51.376;6.126;2024-02-14T14:38:55;15.20;99.90
15625;DHT22;7912;51.376;6.126;2024-02-14T14:41:22;15.20;99.90
15625;DHT22;7912;51.376;6.126;2024-02-14T14:43:50;15.10;99.90
15625;DHT22;7912;51.376;6.126;2024-02-14T14:46:17;15.10;99.90
15625;DHT22;7912;51.376;6.126;2024-02-14T14:48:46;15.10;99.90
15625;DHT22;7912;51.376;6.126;2024-02-14T14:51:14;15.10;99.90
15625;DHT22;7912;51.376;6.126;2024-02-14T14:53:42;15.10;99.90
15625;DHT22;7912;51.376;6.126;2024-02-14T14:56:09;15.10;99.90
15625;DHT22;7912;51.376;6.126;2024-02-14T14:58:36;15.10;99.90
15625;DHT22;7912;51.376;6.126;2024-02-14T15:01:04;15.10;99.90
15625;DHT22;7912;51.376;6.126;2024-02-14T15:03:32;15.10;99.90
15625;DHT22;7912;51.376;6.126;2024-02-14T15:06:01;15.10;99.90
15625;DHT22;7912;51.376;6.126;2024-02-14T15:08:29;15.10;99.90
15625;DHT22;7912;51.376;6.126;2024-02-14T15:10:56;15.10;99.90
15625;DHT22;7912;51.376;6.126;2024-02-14T15:13:24;15.20;99.90
15625;DHT22;7912;51.376;6.126;2024-02-14T15:15:52;15.10;99.90
15625;DHT22;7912;51.376;6.126;2024-02-14T15:18:22;15.20;99.90
15625;DHT22;7912;51.376;6.126;2024-02-14T15:20:49;15.20;99.90
15625;DHT22;7912;51.376;6.126;2024-02-14T15:23:17;15.20;99.90
15625;DHT22;7912;51.376;6.126;2024-02-14T15:25:47;15.10;99.90
15625;DHT22;7912;51.376;6.126;2024-02-14T15:28:14;15.10;99.90
15625;DHT22;7912;51.376;6.126;2024-02-14T15:30:49;15.20;99.90
15625;DHT22;7912;51.376;6.126;2024-02-14T15:33:35;15.20;99.90
15625;DHT22;7912;51.376;6.126;2024-02-14T15:36:03;15.20;99.90
15625;DHT22;7912;51.376;6.126;2024-02-14T15:38:31;15.20;99.90
15625;DHT22;7912;51.376;6.126;2024-02-14T15:41:17;15.20;99.90
15625;DHT22;7912;51.376;6.126;2024-02-14T15:43:44;15.20;99.90
15625;DHT22;7912;51.376;6.126;2024-02-14T15:46:13;15.20;99.90
15625;DHT22;7912;51.376;6.126;2024-02-14T15:48:46;15.20;99.90
15625;DHT22;7912;51.376;6.126;2024-02-14T15:51:14;15.20;99.90
15625;DHT22;7912;51.376;6.126;2024-02-14T15:53:44;15.20;99.90